South Arkansas Regional At Goodwin Field
KELD : now visible

Airfield :











YOU CAN JOIN US ON...

 
LOGIN :

Register | Disclaimer

   EN    FR    IT 

 









Legend :    VFR   Marginal VFR   IFR   Intensive IFR   Very Intensive IFR
Visi :
Ceiling :
>= 8 km
>= 3000ft
5 to 8 km
1000 to 3000 ft
1500m to 5 km
500 to 1000 ft
800 to 1500m
200 to 500 ft
< 800m
< 200 ft
Symbols :   Thunderstorms  Fog  Heavy snow  Heavy precipitations  Wind > 20 kt






- Airport Elevation : 277 ft
- IATA code : ELD


KELD - South Arkansas Regional At Goodwin Field

CURRENT METAR :
  • 041405Z AUTO 33004KT 10SM OVC028 06/01 A3037 RMK AO2 T00610011

EXPIRED METARs :
  • 041353Z AUTO 36005KT 10SM OVC030 06/01 A3036 RMK AO2 SLP280 T00560006
  • 041253Z AUTO 01003KT 10SM FEW036 OVC046 06/01 A3034 RMK AO2 SLP275 T00560006
  • 041153Z AUTO 03004KT 10SM OVC037 06/01 A3032 RMK AO2 SLP269 T00560006 10061 20044 56006

TAF KELD
Valid from the 04 at 12:00 until the 05 at 12:00 UTC


041147Z 0412/0512 02004KT P6SM OVC035
FM050300 09003KT P6SM OVC050
FM050600 15003KT P6SM VCSH OVC015
KZFW FIR / North America



MET'MAP, your aeronautical weather chart ! - Copyright ORBIFLY December 2007 - Disclaimer

ORBIFLY MET'MAP TEAM :

Programming & Development : Alexandra Zaïnal
Original concept : Baudouin d'Aumeries
Technical & hardware support : Manuel Goepfert
Assistance : Marc-Olivier Méhu




SOURCES & CREDITS :

   NOAA       Earth
Advisory